createdAt,value
2022-08-18T00:01:04.563Z,59.30
2022-08-18T00:03:57.199Z,59.15
2022-08-18T00:06:19.514Z,61.53
2022-08-18T00:08:46.022Z,62.45
2022-08-18T00:11:12.379Z,68.57
2022-08-18T00:13:38.740Z,65.63
2022-08-18T00:16:05.295Z,65.72
2022-08-18T00:18:31.627Z,63.33
2022-08-18T00:20:58.002Z,62.33
2022-08-18T00:23:24.334Z,64.70
2022-08-18T00:25:50.691Z,60.58
2022-08-18T00:28:17.013Z,54.63
2022-08-18T00:30:43.360Z,54.60
2022-08-18T00:33:09.721Z,66.35
2022-08-18T00:35:38.305Z,61.72
2022-08-18T00:38:07.006Z,57.58
2022-08-18T00:40:44.505Z,55.70
2022-08-18T00:43:19.681Z,58.38
2022-08-18T00:45:46.872Z,59.50
2022-08-18T00:48:14.630Z,60.75
2022-08-18T00:50:53.124Z,68.10
2022-08-18T00:53:33.589Z,70.30
2022-08-18T00:56:06.513Z,74.47
2022-08-18T00:58:39.401Z,67.32
2022-08-18T01:01:08.606Z,71.43
2022-08-18T01:03:37.677Z,69.75
2022-08-18T01:06:09.631Z,68.63
2022-08-18T01:08:36.106Z,69.10
2022-08-18T01:11:03.111Z,79.10
2022-08-18T01:13:32.320Z,76.50
2022-08-18T01:15:59.846Z,83.00
2022-08-18T01:18:26.177Z,84.18
2022-08-18T01:21:00.937Z,75.85
2022-08-18T01:25:54.810Z,77.25
2022-08-18T01:28:21.151Z,83.32
2022-08-18T01:30:50.590Z,85.65
2022-08-18T01:33:18.118Z,79.03
2022-08-18T01:35:48.190Z,85.72
2022-08-18T01:38:16.640Z,79.45
2022-08-18T01:41:22.758Z,81.03
2022-08-18T01:43:29.323Z,83.28
2022-08-18T01:45:55.656Z,74.93
2022-08-18T01:48:22.004Z,79.28
2022-08-18T01:50:48.326Z,85.45
2022-08-18T01:53:15.139Z,86.68
2022-08-18T01:55:43.563Z,85.72
2022-08-18T01:58:10.289Z,89.97
2022-08-18T02:00:36.688Z,82.03
2022-08-18T02:03:06.498Z,87.82
2022-08-18T02:05:49.619Z,86.32
2022-08-18T02:08:16.305Z,90.25
2022-08-18T02:10:42.951Z,95.75
2022-08-18T02:13:09.490Z,88.65
2022-08-18T02:15:35.838Z,93.80
2022-08-18T02:18:02.214Z,91.65
2022-08-18T02:20:28.826Z,92.85
2022-08-18T02:22:55.222Z,88.63
2022-08-18T02:25:21.570Z,101.28
2022-08-18T02:27:47.939Z,93.75
2022-08-18T02:30:17.345Z,95.88
2022-08-18T02:32:44.298Z,96.47
2022-08-18T02:35:11.869Z,99.97
2022-08-18T02:37:42.392Z,115.43
2022-08-18T02:40:10.263Z,106.47
2022-08-18T02:42:41.391Z,97.88
2022-08-18T02:45:08.204Z,93.03
2022-08-18T02:47:36.498Z,108.50
2022-08-18T02:50:03.014Z,119.35
2022-08-18T02:52:29.341Z,111.35
2022-08-18T02:54:55.688Z,101.18
2022-08-18T02:57:22.028Z,91.68
2022-08-18T02:59:48.399Z,96.30
2022-08-18T03:02:14.861Z,106.15
2022-08-18T03:04:41.189Z,99.65
2022-08-18T03:07:07.770Z,104.00
2022-08-18T03:09:35.061Z,101.55
2022-08-18T03:12:01.925Z,98.95
2022-08-18T03:14:29.323Z,100.95
2022-08-18T03:16:55.692Z,110.75
2022-08-18T03:19:31.679Z,112.03
2022-08-18T03:22:02.961Z,108.13
2022-08-18T03:24:32.155Z,100.90
2022-08-18T03:26:59.435Z,112.57
2022-08-18T03:29:31.222Z,107.78
2022-08-18T03:31:58.910Z,102.85
2022-08-18T03:34:25.266Z,101.85
2022-08-18T03:36:51.862Z,106.57
2022-08-18T03:39:19.370Z,109.55
2022-08-18T03:41:58.522Z,111.43
2022-08-18T03:44:29.979Z,100.20
2022-08-18T03:46:56.382Z,99.38
2022-08-18T03:49:22.876Z,111.75
2022-08-18T03:51:49.628Z,101.53
2022-08-18T03:54:17.643Z,98.35
2022-08-18T03:56:46.775Z,104.22
2022-08-18T03:59:19.637Z,108.13
2022-08-18T04:01:48.244Z,109.50
2022-08-18T04:04:18.913Z,101.05
2022-08-18T04:06:49.534Z,110.60
2022-08-18T04:09:17.318Z,113.03
2022-08-18T04:11:44.969Z,109.30
2022-08-18T04:14:13.124Z,116.57
2022-08-18T04:16:39.498Z,118.63
2022-08-18T04:19:06.343Z,112.78
2022-08-18T04:21:36.676Z,128.02
2022-08-18T04:24:04.809Z,126.68
2022-08-18T04:26:32.989Z,125.10
2022-08-18T04:28:59.382Z,135.43
2022-08-18T04:31:25.705Z,142.15
2022-08-18T04:33:52.284Z,126.05
2022-08-18T04:36:20.583Z,131.13
2022-08-18T04:38:47.322Z,130.38
2022-08-18T04:41:14.011Z,111.72
2022-08-18T04:43:41.228Z,125.28
2022-08-18T04:46:07.775Z,117.53
2022-08-18T04:48:37.818Z,114.90
2022-08-18T04:51:10.192Z,118.50
2022-08-18T04:53:37.282Z,105.28
2022-08-18T04:56:03.872Z,100.53
2022-08-18T04:58:30.238Z,99.85
2022-08-18T05:00:59.516Z,95.60
2022-08-18T05:03:26.101Z,87.45
2022-08-18T05:05:58.095Z,92.68
2022-08-18T05:08:25.944Z,94.07
2022-08-18T05:11:01.673Z,91.28
2022-08-18T05:13:30.263Z,91.47
2022-08-18T05:16:10.809Z,85.55
2022-08-18T05:18:39.092Z,88.45
2022-08-18T05:21:06.377Z,117.82
2022-08-18T05:23:36.824Z,99.15
2022-08-18T05:26:03.720Z,94.13
2022-08-18T05:28:33.231Z,93.55
2022-08-18T05:31:00.507Z,100.40
2022-08-18T05:33:27.220Z,88.22
2022-08-18T05:36:04.301Z,85.70
2022-08-18T05:38:55.271Z,86.10
2022-08-18T05:41:24.240Z,83.75
2022-08-18T05:43:52.594Z,91.07
2022-08-18T05:46:22.019Z,79.25
2022-08-18T05:48:48.622Z,91.97
2022-08-18T05:51:34.848Z,95.90
2022-08-18T05:54:04.683Z,90.65
2022-08-18T05:56:36.600Z,83.78
2022-08-18T05:59:03.437Z,80.57
2022-08-18T06:01:38.499Z,79.50
2022-08-18T06:04:11.818Z,70.22
2022-08-18T06:06:38.808Z,66.38
2022-08-18T06:09:13.409Z,62.10
2022-08-18T06:11:39.782Z,61.70
2022-08-18T06:14:06.311Z,53.38
2022-08-18T06:17:01.219Z,59.35
2022-08-18T06:19:38.279Z,59.35
2022-08-18T06:22:21.445Z,51.55
2022-08-18T06:25:06.684Z,44.05
2022-08-18T06:27:44.982Z,41.47
2022-08-18T06:30:12.737Z,39.22
2022-08-18T06:32:57.723Z,36.70
2022-08-18T06:38:17.826Z,38.15
2022-08-18T06:40:46.591Z,34.15
2022-08-18T06:43:15.974Z,35.22
2022-08-18T06:45:46.083Z,40.03
2022-08-18T06:48:18.188Z,34.35
2022-08-18T06:50:56.062Z,35.92
2022-08-18T06:53:27.090Z,35.53
2022-08-18T06:55:54.105Z,38.25
2022-08-18T06:58:29.354Z,35.90
2022-08-18T07:01:00.987Z,39.83
2022-08-18T07:03:36.204Z,42.67
2022-08-18T07:06:10.344Z,35.08
2022-08-18T07:08:43.460Z,35.17
2022-08-18T07:11:13.527Z,42.33
2022-08-18T07:13:42.172Z,40.95
2022-08-18T07:16:40.275Z,38.13
2022-08-18T07:19:29.623Z,42.78
2022-08-18T07:22:05.081Z,44.60
2022-08-18T07:24:35.673Z,42.85
2022-08-18T07:27:12.174Z,40.70
2022-08-18T07:30:06.613Z,38.05
2022-08-18T07:32:41.854Z,41.07
2022-08-18T07:35:09.697Z,38.50
2022-08-18T07:37:42.958Z,33.08
2022-08-18T07:40:35.511Z,37.75
2022-08-18T07:43:20.588Z,34.72
2022-08-18T07:45:52.206Z,36.65
2022-08-18T07:48:38.279Z,39.03
2022-08-18T07:51:24.981Z,40.63
2022-08-18T07:54:02.363Z,45.03
2022-08-18T07:56:34.580Z,48.72
2022-08-18T07:59:20.906Z,49.63
2022-08-18T08:01:55.549Z,45.03
2022-08-18T08:07:27.191Z,44.08
2022-08-18T08:10:21.848Z,41.58
2022-08-18T08:13:19.357Z,47.15
2022-08-18T08:16:19.811Z,41.38
2022-08-18T08:19:03.042Z,48.63
2022-08-18T08:21:52.993Z,47.00
2022-08-18T08:24:58.694Z,42.75
2022-08-18T08:27:53.677Z,44.70
2022-08-18T08:30:24.356Z,43.83
2022-08-18T08:33:16.671Z,40.28
2022-08-18T08:35:56.280Z,43.25
2022-08-18T08:38:43.161Z,48.63
2022-08-18T08:41:20.229Z,48.90
2022-08-18T08:44:00.442Z,49.38
2022-08-18T08:46:29.642Z,46.33
2022-08-18T08:49:03.235Z,50.22
2022-08-18T08:51:39.427Z,46.28
2022-08-18T08:54:14.153Z,50.50
2022-08-18T08:56:45.611Z,41.80
2022-08-18T08:59:14.785Z,44.80
2022-08-18T09:02:06.903Z,38.42
2022-08-18T09:05:07.653Z,44.88
2022-08-18T09:08:02.290Z,40.35
2022-08-18T09:10:34.399Z,38.90
2022-08-18T09:13:29.385Z,32.22
2022-08-18T09:16:27.835Z,41.00
2022-08-18T09:19:35.741Z,31.25
2022-08-18T09:22:04.770Z,35.15
2022-08-18T09:24:40.483Z,30.73
2022-08-18T09:27:48.620Z,35.13
2022-08-18T09:30:44.405Z,33.45
2022-08-18T09:33:39.994Z,34.13
2022-08-18T09:36:20.126Z,39.45
2022-08-18T09:38:59.057Z,44.28
2022-08-18T09:41:33.346Z,47.85
2022-08-18T09:44:21.483Z,47.60
2022-08-18T09:46:56.182Z,42.95
2022-08-18T09:49:23.856Z,36.17
2022-08-18T09:51:55.974Z,41.45
2022-08-18T09:54:25.430Z,45.63
2022-08-18T09:56:54.433Z,42.10
2022-08-18T09:59:34.657Z,39.35
2022-08-18T10:02:14.175Z,43.13
2022-08-18T10:04:46.811Z,44.45
2022-08-18T10:07:36.923Z,50.60
2022-08-18T10:13:21.501Z,41.15
2022-08-18T10:16:05.373Z,40.38
2022-08-18T10:19:14.803Z,44.78
2022-08-18T10:22:10.672Z,35.47
2022-08-18T10:24:57.260Z,27.73
2022-08-18T10:27:41.865Z,31.95
2022-08-18T10:30:30.375Z,38.38
2022-08-18T10:33:18.373Z,27.85
2022-08-18T10:36:00.698Z,39.95
2022-08-18T10:38:45.953Z,39.53
2022-08-18T10:41:33.510Z,34.55
2022-08-18T10:44:10.609Z,27.88
2022-08-18T10:46:50.538Z,37.38
2022-08-18T10:49:24.460Z,37.28
2022-08-18T10:52:08.911Z,40.92
2022-08-18T10:55:49.174Z,30.80
2022-08-18T10:58:34.283Z,36.35
2022-08-18T11:01:19.438Z,38.13
2022-08-18T11:04:13.920Z,31.70
2022-08-18T11:06:47.319Z,28.88
2022-08-18T11:09:21.597Z,34.28
2022-08-18T11:11:59.756Z,27.60
2022-08-18T11:14:42.834Z,33.50
2022-08-18T11:17:30.206Z,31.58
2022-08-18T11:19:56.789Z,39.10
2022-08-18T11:22:36.287Z,40.75
2022-08-18T11:25:19.667Z,34.00
2022-08-18T11:27:48.464Z,29.50
2022-08-18T11:30:15.164Z,26.27
2022-08-18T11:35:45.383Z,29.40
2022-08-18T11:38:21.060Z,36.80
2022-08-18T11:41:11.829Z,34.65
2022-08-18T11:43:42.342Z,30.80
2022-08-18T11:46:27.795Z,25.83
2022-08-18T11:48:55.691Z,26.05
2022-08-18T11:51:30.066Z,26.88
2022-08-18T11:54:14.858Z,26.42
2022-08-18T11:56:41.243Z,26.02
2022-08-18T11:59:52.265Z,24.17
2022-08-18T12:02:19.241Z,21.58
2022-08-18T12:04:51.084Z,29.10
2022-08-18T12:07:28.301Z,36.72
2022-08-18T12:10:19.845Z,35.35
2022-08-18T12:12:53.446Z,38.97
2022-08-18T12:15:22.724Z,38.17
2022-08-18T12:17:53.009Z,34.22
2022-08-18T12:20:21.137Z,36.03
2022-08-18T12:22:48.495Z,34.47
2022-08-18T12:25:24.595Z,32.45
2022-08-18T12:27:52.119Z,32.00
2022-08-18T12:30:18.466Z,31.17
2022-08-18T12:32:48.922Z,24.52
2022-08-18T12:35:22.145Z,29.05
2022-08-18T12:40:35.458Z,22.55
2022-08-18T12:43:01.924Z,22.98
2022-08-18T12:45:28.955Z,22.90
2022-08-18T12:47:55.623Z,20.35
2022-08-18T12:50:31.253Z,28.35
2022-08-18T12:53:00.080Z,18.75
2022-08-18T12:55:29.392Z,19.65
2022-08-18T12:57:56.054Z,17.95
2022-08-18T13:00:27.953Z,17.10
2022-08-18T13:02:56.176Z,16.70
2022-08-18T13:05:26.337Z,14.90
2022-08-18T13:07:57.900Z,14.82
2022-08-18T13:10:45.031Z,14.93
2022-08-18T13:13:10.936Z,13.32
2022-08-18T13:15:37.587Z,15.35
2022-08-18T13:18:04.206Z,13.95
2022-08-18T13:20:30.551Z,13.45
2022-08-18T13:22:56.888Z,13.52
2022-08-18T13:25:32.733Z,11.77
2022-08-18T13:28:05.745Z,10.85
2022-08-18T13:30:32.802Z,15.13
2022-08-18T13:33:05.855Z,17.98
2022-08-18T13:35:52.335Z,16.45
2022-08-18T13:38:27.095Z,15.93
2022-08-18T13:40:56.743Z,18.65
2022-08-18T13:43:30.183Z,14.40
2022-08-18T13:45:56.666Z,22.23
2022-08-18T13:48:24.449Z,25.70
2022-08-18T13:50:53.678Z,19.85
2022-08-18T13:53:22.440Z,21.58
2022-08-18T13:55:49.203Z,18.85
2022-08-18T13:58:20.414Z,19.52
2022-08-18T14:00:50.120Z,13.40
2022-08-18T14:03:20.378Z,12.90
2022-08-18T14:06:01.564Z,10.70
2022-08-18T14:08:30.178Z,12.35
2022-08-18T14:10:59.747Z,11.32
2022-08-18T14:13:26.835Z,9.82
2022-08-18T14:15:56.834Z,11.93
2022-08-18T14:18:28.583Z,11.80
2022-08-18T14:20:57.299Z,10.57
2022-08-18T14:23:27.887Z,15.23
2022-08-18T14:26:00.117Z,20.20
2022-08-18T14:28:27.811Z,17.55
2022-08-18T14:30:56.527Z,11.30
2022-08-18T14:33:51.014Z,11.80
2022-08-18T14:36:11.644Z,10.77
2022-08-18T14:38:38.524Z,9.52
2022-08-18T14:41:08.065Z,11.10
2022-08-18T14:43:51.738Z,13.27
2022-08-18T14:48:48.832Z,11.07
2022-08-18T14:51:15.603Z,9.57
2022-08-18T14:53:42.826Z,11.95
2022-08-18T14:56:09.679Z,10.20
2022-08-18T14:58:36.708Z,8.32
2022-08-18T15:01:08.470Z,10.70
2022-08-18T15:03:38.203Z,8.80
2022-08-18T15:06:06.629Z,10.52
2022-08-18T15:08:36.106Z,7.88
2022-08-18T15:11:04.813Z,7.32
2022-08-18T15:13:31.622Z,7.35
2022-08-18T15:16:02.158Z,7.22
2022-08-18T15:18:29.311Z,7.20
2022-08-18T15:20:55.647Z,6.93
2022-08-18T15:23:24.952Z,7.95
2022-08-18T15:25:55.042Z,5.15
2022-08-18T15:28:25.341Z,5.13
2022-08-18T15:31:16.567Z,5.45
2022-08-18T15:33:38.911Z,7.88
2022-08-18T15:36:05.574Z,6.35
2022-08-18T15:38:36.801Z,7.72
2022-08-18T15:41:09.364Z,6.70
2022-08-18T15:43:36.572Z,8.18
2022-08-18T15:46:12.458Z,6.78
2022-08-18T15:48:42.965Z,5.63
2022-08-18T15:51:11.770Z,6.40
2022-08-18T15:53:39.937Z,4.97
2022-08-18T15:56:12.733Z,5.63
2022-08-18T15:58:39.053Z,5.63
2022-08-18T16:01:29.745Z,6.03
2022-08-18T16:03:56.044Z,7.32
2022-08-18T16:06:27.811Z,4.90
2022-08-18T16:08:59.636Z,5.28
2022-08-18T16:11:29.316Z,6.40
2022-08-18T16:13:57.309Z,6.18
2022-08-18T16:16:35.179Z,5.72
2022-08-18T16:19:03.725Z,5.78
2022-08-18T16:21:30.055Z,10.57
2022-08-18T16:23:56.397Z,5.82
2022-08-18T16:26:22.768Z,6.90
2022-08-18T16:28:51.946Z,5.18
2022-08-18T16:31:20.186Z,7.75
2022-08-18T16:33:46.548Z,5.45
2022-08-18T16:36:13.315Z,8.40
2022-08-18T16:38:41.125Z,7.13
2022-08-18T16:41:13.573Z,8.60
2022-08-18T16:43:41.547Z,6.60
2022-08-18T16:46:13.309Z,8.13
2022-08-18T16:48:40.143Z,7.15
2022-08-18T16:51:12.994Z,7.55
2022-08-18T16:53:40.259Z,9.20
2022-08-18T16:56:11.945Z,8.10
2022-08-18T16:58:38.354Z,5.53
2022-08-18T17:01:04.851Z,5.32
2022-08-18T17:03:31.173Z,9.95
2022-08-18T17:06:06.754Z,9.73
2022-08-18T17:08:34.462Z,6.50
2022-08-18T17:11:02.643Z,8.70
2022-08-18T17:13:29.443Z,5.60
2022-08-18T17:15:56.137Z,6.57
2022-08-18T17:18:22.793Z,8.00
2022-08-18T17:20:49.179Z,10.07
2022-08-18T17:23:15.624Z,10.13
2022-08-18T17:25:42.429Z,8.63
2022-08-18T17:28:10.159Z,8.65
2022-08-18T17:30:46.495Z,8.90
2022-08-18T17:33:18.482Z,10.52
2022-08-18T17:35:46.786Z,7.97
2022-08-18T17:38:25.180Z,11.45
2022-08-18T17:40:54.362Z,6.72
2022-08-18T17:43:24.020Z,9.77
2022-08-18T17:46:01.635Z,9.52
2022-08-18T17:48:40.999Z,7.90
2022-08-18T17:51:16.383Z,7.35
2022-08-18T17:53:42.945Z,10.90
2022-08-18T17:56:19.575Z,9.02
2022-08-18T17:59:46.103Z,13.20
2022-08-18T18:02:22.240Z,9.40
2022-08-18T18:05:01.279Z,7.68
2022-08-18T18:07:49.246Z,7.57
2022-08-18T18:10:51.026Z,6.07
2022-08-18T18:13:28.417Z,11.23
2022-08-18T18:15:57.750Z,9.50
2022-08-18T18:18:35.184Z,7.90
2022-08-18T18:21:07.948Z,8.40
2022-08-18T18:23:38.084Z,7.93
2022-08-18T18:26:20.839Z,7.50
2022-08-18T18:28:47.165Z,6.80
2022-08-18T18:31:22.201Z,9.05
2022-08-18T18:33:55.996Z,7.18
2022-08-18T18:36:37.727Z,11.17
2022-08-18T18:39:14.565Z,11.15
2022-08-18T18:41:41.013Z,8.73
2022-08-18T18:44:13.143Z,6.80
2022-08-18T18:46:49.637Z,11.73
2022-08-18T18:49:32.018Z,6.22
2022-08-18T18:52:14.318Z,6.82
2022-08-18T18:54:52.593Z,6.88
2022-08-18T18:57:46.869Z,6.75
2022-08-18T19:00:23.957Z,6.88
2022-08-18T19:03:01.541Z,8.55
2022-08-18T19:05:37.438Z,7.80
2022-08-18T19:08:33.291Z,11.45
2022-08-18T19:11:10.557Z,7.78
2022-08-18T19:13:41.794Z,11.55
2022-08-18T19:16:23.698Z,10.40
2022-08-18T19:19:35.513Z,8.85
2022-08-18T19:22:03.154Z,6.95
2022-08-18T19:24:31.595Z,10.75
2022-08-18T19:27:01.024Z,10.35
2022-08-18T19:29:34.689Z,9.52
2022-08-18T19:32:16.364Z,6.85
2022-08-18T19:34:52.653Z,8.40
2022-08-18T19:37:43.447Z,6.53
2022-08-18T19:40:31.565Z,9.85
2022-08-18T19:43:06.175Z,6.70
2022-08-18T19:46:14.061Z,9.77
2022-08-18T19:48:47.074Z,7.20
2022-08-18T19:51:16.941Z,10.38
2022-08-18T19:54:04.000Z,9.48
2022-08-18T19:56:55.241Z,8.15
2022-08-18T19:59:45.184Z,10.15
2022-08-18T20:02:29.370Z,9.45
2022-08-18T20:05:14.179Z,9.50
2022-08-18T20:07:55.874Z,10.73
2022-08-18T20:10:42.567Z,8.05
2022-08-18T20:13:32.201Z,6.82
2022-08-18T20:16:04.399Z,11.02
2022-08-18T20:18:34.074Z,8.10
2022-08-18T20:21:15.464Z,8.50
2022-08-18T20:24:16.414Z,11.50
2022-08-18T20:26:46.454Z,7.70
2022-08-18T20:29:17.662Z,10.40
2022-08-18T20:31:49.838Z,9.93
2022-08-18T20:34:20.239Z,10.10
2022-08-18T20:36:48.159Z,11.13
2022-08-18T20:39:32.478Z,13.60
2022-08-18T20:42:00.417Z,10.63
2022-08-18T20:44:51.961Z,11.82
2022-08-18T20:47:42.880Z,13.07
2022-08-18T20:50:24.712Z,11.73
2022-08-18T20:53:08.581Z,10.80
2022-08-18T20:56:43.264Z,10.60
2022-08-18T20:59:39.791Z,11.27
2022-08-18T21:02:23.925Z,19.10
2022-08-18T21:04:53.822Z,13.05
2022-08-18T21:07:36.623Z,15.60
2022-08-18T21:10:13.780Z,10.98
2022-08-18T21:12:52.442Z,15.57
2022-08-18T21:15:21.890Z,13.18
2022-08-18T21:18:00.398Z,13.07
2022-08-18T21:20:27.945Z,12.73
2022-08-18T21:23:11.249Z,18.17
2022-08-18T21:25:47.968Z,12.10
2022-08-18T21:28:14.398Z,18.83
2022-08-18T21:30:55.224Z,13.00
2022-08-18T21:33:21.577Z,13.52
2022-08-18T21:35:47.914Z,15.77
2022-08-18T21:38:14.350Z,15.82
2022-08-18T21:40:48.939Z,15.88
2022-08-18T21:43:49.421Z,15.85
2022-08-18T21:46:29.438Z,15.88
2022-08-18T21:48:59.719Z,13.57
2022-08-18T21:51:30.113Z,18.83
2022-08-18T21:53:58.265Z,17.25
2022-08-18T21:56:32.490Z,17.33
2022-08-18T21:59:18.066Z,11.50
2022-08-18T22:01:53.523Z,14.75
2022-08-18T22:04:35.283Z,15.50
2022-08-18T22:07:34.126Z,11.65
2022-08-18T22:10:06.005Z,13.63
2022-08-18T22:12:35.995Z,21.73
2022-08-18T22:15:13.348Z,16.70
2022-08-18T22:17:51.542Z,16.95
2022-08-18T22:20:54.200Z,21.60
2022-08-18T22:23:27.371Z,15.57
2022-08-18T22:26:05.403Z,16.20
2022-08-18T22:28:32.042Z,13.55
2022-08-18T22:30:58.392Z,13.10
2022-08-18T22:33:25.177Z,14.82
2022-08-18T22:35:56.164Z,15.65
2022-08-18T22:38:22.985Z,18.90
2022-08-18T22:40:49.361Z,17.33
2022-08-18T22:43:15.709Z,13.38
2022-08-18T22:45:42.148Z,16.75
2022-08-18T22:48:08.484Z,12.88
2022-08-18T22:50:34.907Z,17.15
2022-08-18T22:53:01.275Z,18.48
2022-08-18T22:55:27.805Z,17.05
2022-08-18T22:57:56.160Z,19.85
2022-08-18T23:00:25.142Z,15.73
2022-08-18T23:02:52.595Z,18.95
2022-08-18T23:05:19.359Z,20.70
2022-08-18T23:07:45.703Z,14.10
2022-08-18T23:10:13.971Z,17.25
2022-08-18T23:12:41.976Z,16.95
2022-08-18T23:15:08.620Z,19.55
2022-08-18T23:17:35.243Z,16.15
2022-08-18T23:20:01.610Z,15.35
2022-08-18T23:22:27.952Z,14.70
2022-08-18T23:24:54.370Z,17.10
2022-08-18T23:27:20.806Z,19.33
2022-08-18T23:29:48.439Z,14.80
2022-08-18T23:32:14.835Z,17.67
2022-08-18T23:34:41.199Z,16.85
2022-08-18T23:37:07.624Z,14.07
2022-08-18T23:39:36.643Z,12.90
2022-08-18T23:42:03.816Z,17.92
2022-08-18T23:44:30.970Z,17.30
2022-08-18T23:46:58.280Z,16.10
2022-08-18T23:49:26.194Z,13.57
2022-08-18T23:51:52.612Z,14.38
2022-08-18T23:54:26.522Z,14.18
2022-08-18T23:56:52.994Z,16.23
2022-08-18T23:59:21.154Z,18.15
